sensor_id;sensor_type;location;lat;lon;timestamp;temperature;humidity
86352;DHT22;77009;51.046;3.204;2024-03-17T00:02:08;9.10;99.90
86352;DHT22;77009;51.046;3.204;2024-03-17T00:04:34;9.00;99.90
86352;DHT22;77009;51.046;3.204;2024-03-17T00:07:00;8.90;99.90
86352;DHT22;77009;51.046;3.204;2024-03-17T00:09:26;8.80;99.90
86352;DHT22;77009;51.046;3.204;2024-03-17T00:11:51;8.90;99.90
86352;DHT22;77009;51.046;3.204;2024-03-17T00:14:17;8.80;99.90
86352;DHT22;77009;51.046;3.204;2024-03-17T00:16:44;8.90;99.90
86352;DHT22;77009;51.046;3.204;2024-03-17T00:19:10;9.00;99.90
86352;DHT22;77009;51.046;3.204;2024-03-17T00:21:36;9.00;99.90
86352;DHT22;77009;51.046;3.204;2024-03-17T00:24:01;9.00;99.90
86352;DHT22;77009;51.046;3.204;2024-03-17T00:26:28;9.10;99.90
86352;DHT22;77009;51.046;3.204;2024-03-17T00:28:55;9.20;99.90
86352;DHT22;77009;51.046;3.204;2024-03-17T00:31:20;9.20;99.90
86352;DHT22;77009;51.046;3.204;2024-03-17T00:33:46;9.20;99.90
86352;DHT22;77009;51.046;3.204;2024-03-17T00:36:12;9.20;99.90
86352;DHT22;77009;51.046;3.204;2024-03-17T00:38:37;9.10;99.90
86352;DHT22;77009;51.046;3.204;2024-03-17T00:41:04;9.20;99.90
86352;DHT22;77009;51.046;3.204;2024-03-17T00:43:29;9.30;99.90
86352;DHT22;77009;51.046;3.204;2024-03-17T00:45:55;9.30;99.90
86352;DHT22;77009;51.046;3.204;2024-03-17T00:48:21;9.30;99.90
86352;DHT22;77009;51.046;3.204;2024-03-17T00:50:57;9.20;99.90
86352;DHT22;77009;51.046;3.204;2024-03-17T00:53:24;9.20;99.90
86352;DHT22;77009;51.046;3.204;2024-03-17T00:55:54;9.20;99.90
86352;DHT22;77009;51.046;3.204;2024-03-17T00:58:23;9.10;99.90
86352;DHT22;77009;51.046;3.204;2024-03-17T01:00:48;9.10;99.90
86352;DHT22;77009;51.046;3.204;2024-03-17T01:03:18;9.10;99.90
86352;DHT22;77009;51.046;3.204;2024-03-17T01:05:44;9.10;99.90
86352;DHT22;77009;51.046;3.204;2024-03-17T01:08:13;9.00;99.90
86352;DHT22;77009;51.046;3.204;2024-03-17T01:10:42;9.10;99.90
86352;DHT22;77009;51.046;3.204;2024-03-17T01:13:08;9.10;99.90
86352;DHT22;77009;51.046;3.204;2024-03-17T01:15:36;9.00;99.90
86352;DHT22;77009;51.046;3.204;2024-03-17T01:18:03;9.00;99.90
86352;DHT22;77009;51.046;3.204;2024-03-17T01:20:34;9.00;99.90
86352;DHT22;77009;51.046;3.204;2024-03-17T01:23:01;9.10;99.90
86352;DHT22;77009;51.046;3.204;2024-03-17T01:25:27;9.10;99.90
86352;DHT22;77009;51.046;3.204;2024-03-17T01:27:53;9.00;99.90
86352;DHT22;77009;51.046;3.204;2024-03-17T01:30:19;8.90;99.90
86352;DHT22;77009;51.046;3.204;2024-03-17T01:32:45;8.90;99.90
86352;DHT22;77009;51.046;3.204;2024-03-17T01:35:11;9.00;99.90
86352;DHT22;77009;51.046;3.204;2024-03-17T01:37:40;8.90;99.90
86352;DHT22;77009;51.046;3.204;2024-03-17T01:40:06;9.00;99.90
86352;DHT22;77009;51.046;3.204;2024-03-17T01:42:39;9.00;99.90
86352;DHT22;77009;51.046;3.204;2024-03-17T01:47:46;9.10;99.90
86352;DHT22;77009;51.046;3.204;2024-03-17T01:50:12;9.20;99.90
86352;DHT22;77009;51.046;3.204;2024-03-17T01:52:39;9.00;99.90
86352;DHT22;77009;51.046;3.204;2024-03-17T01:55:05;9.00;99.90
86352;DHT22;77009;51.046;3.204;2024-03-17T01:57:31;8.90;99.90
86352;DHT22;77009;51.046;3.204;2024-03-17T01:59:57;8.80;99.90
86352;DHT22;77009;51.046;3.204;2024-03-17T02:02:23;8.80;99.90
86352;DHT22;77009;51.046;3.204;2024-03-17T02:04:50;8.70;99.90
86352;DHT22;77009;51.046;3.204;2024-03-17T02:07:15;8.80;99.90
86352;DHT22;77009;51.046;3.204;2024-03-17T02:09:41;8.80;99.90
86352;DHT22;77009;51.046;3.204;2024-03-17T02:12:09;8.90;99.90
86352;DHT22;77009;51.046;3.204;2024-03-17T02:14:36;9.00;99.90
86352;DHT22;77009;51.046;3.204;2024-03-17T02:17:01;8.90;99.90
86352;DHT22;77009;51.046;3.204;2024-03-17T02:19:27;8.90;99.90
86352;DHT22;77009;51.046;3.204;2024-03-17T02:21:53;8.90;99.90
86352;DHT22;77009;51.046;3.204;2024-03-17T02:24:19;8.80;99.90
86352;DHT22;77009;51.046;3.204;2024-03-17T02:26:45;8.70;99.90
86352;DHT22;77009;51.046;3.204;2024-03-17T02:29:10;8.90;99.90
86352;DHT22;77009;51.046;3.204;2024-03-17T02:31:36;8.90;99.90
86352;DHT22;77009;51.046;3.204;2024-03-17T02:34:01;8.90;99.90
86352;DHT22;77009;51.046;3.204;2024-03-17T02:36:27;8.90;99.90
86352;DHT22;77009;51.046;3.204;2024-03-17T02:38:53;8.80;99.90
86352;DHT22;77009;51.046;3.204;2024-03-17T02:41:37;8.80;99.90
86352;DHT22;77009;51.046;3.204;2024-03-17T02:44:02;8.70;99.90
86352;DHT22;77009;51.046;3.204;2024-03-17T02:46:28;8.80;99.90
86352;DHT22;77009;51.046;3.204;2024-03-17T02:48:54;8.70;99.90
86352;DHT22;77009;51.046;3.204;2024-03-17T02:51:21;8.70;99.90
86352;DHT22;77009;51.046;3.204;2024-03-17T02:53:48;8.70;99.90
86352;DHT22;77009;51.046;3.204;2024-03-17T02:56:15;8.80;99.90
86352;DHT22;77009;51.046;3.204;2024-03-17T02:58:42;8.70;99.90
86352;DHT22;77009;51.046;3.204;2024-03-17T03:01:08;8.70;99.90
86352;DHT22;77009;51.046;3.204;2024-03-17T03:03:37;8.60;99.90
86352;DHT22;77009;51.046;3.204;2024-03-17T03:06:03;8.50;99.90
86352;DHT22;77009;51.046;3.204;2024-03-17T03:08:40;8.50;99.90
86352;DHT22;77009;51.046;3.204;2024-03-17T03:11:08;8.40;99.90
86352;DHT22;77009;51.046;3.204;2024-03-17T03:13:37;8.40;99.90
86352;DHT22;77009;51.046;3.204;2024-03-17T03:16:06;8.40;99.90
86352;DHT22;77009;51.046;3.204;2024-03-17T03:18:31;8.30;99.90
86352;DHT22;77009;51.046;3.204;2024-03-17T03:20:57;8.30;99.90
86352;DHT22;77009;51.046;3.204;2024-03-17T03:23:22;8.20;99.90
86352;DHT22;77009;51.046;3.204;2024-03-17T03:25:54;8.20;99.90
86352;DHT22;77009;51.046;3.204;2024-03-17T03:28:21;8.10;99.90
86352;DHT22;77009;51.046;3.204;2024-03-17T03:30:46;8.10;99.90
86352;DHT22;77009;51.046;3.204;2024-03-17T03:33:12;8.10;99.90
86352;DHT22;77009;51.046;3.204;2024-03-17T03:35:37;8.10;99.90
86352;DHT22;77009;51.046;3.204;2024-03-17T03:38:03;8.10;99.90
86352;DHT22;77009;51.046;3.204;2024-03-17T03:40:29;8.20;99.90
86352;DHT22;77009;51.046;3.204;2024-03-17T03:42:55;8.20;99.90
86352;DHT22;77009;51.046;3.204;2024-03-17T03:45:21;8.20;99.90
86352;DHT22;77009;51.046;3.204;2024-03-17T03:47:47;8.20;99.90
86352;DHT22;77009;51.046;3.204;2024-03-17T03:50:15;8.10;99.90
86352;DHT22;77009;51.046;3.204;2024-03-17T03:52:41;8.20;99.90
86352;DHT22;77009;51.046;3.204;2024-03-17T03:55:11;8.20;99.90
86352;DHT22;77009;51.046;3.204;2024-03-17T03:57:40;8.10;99.90
86352;DHT22;77009;51.046;3.204;2024-03-17T04:00:06;8.10;99.90
86352;DHT22;77009;51.046;3.204;2024-03-17T04:02:44;8.10;99.90
86352;DHT22;77009;51.046;3.204;2024-03-17T04:05:10;8.10;99.90
86352;DHT22;77009;51.046;3.204;2024-03-17T04:07:36;8.10;99.90
86352;DHT22;77009;51.046;3.204;2024-03-17T04:10:03;8.20;99.90
86352;DHT22;77009;51.046;3.204;2024-03-17T04:12:29;8.10;99.90
86352;DHT22;77009;51.046;3.204;2024-03-17T04:14:58;8.20;99.90
86352;DHT22;77009;51.046;3.204;2024-03-17T04:17:24;8.00;99.90
86352;DHT22;77009;51.046;3.204;2024-03-17T04:19:51;8.10;99.90
86352;DHT22;77009;51.046;3.204;2024-03-17T04:22:18;8.20;99.90
86352;DHT22;77009;51.046;3.204;2024-03-17T04:24:44;8.20;99.90
86352;DHT22;77009;51.046;3.204;2024-03-17T04:27:10;8.20;99.90
86352;DHT22;77009;51.046;3.204;2024-03-17T04:29:36;8.20;99.90
86352;DHT22;77009;51.046;3.204;2024-03-17T04:32:02;8.20;99.90
86352;DHT22;77009;51.046;3.204;2024-03-17T04:34:28;8.20;99.90
86352;DHT22;77009;51.046;3.204;2024-03-17T04:36:53;8.20;99.90
86352;DHT22;77009;51.046;3.204;2024-03-17T04:39:19;8.20;99.90
86352;DHT22;77009;51.046;3.204;2024-03-17T04:41:47;8.30;99.90
86352;DHT22;77009;51.046;3.204;2024-03-17T04:44:13;8.10;99.90
86352;DHT22;77009;51.046;3.204;2024-03-17T04:46:39;8.10;99.90
86352;DHT22;77009;51.046;3.204;2024-03-17T04:49:04;8.20;99.90
86352;DHT22;77009;51.046;3.204;2024-03-17T04:51:30;8.30;99.90
86352;DHT22;77009;51.046;3.204;2024-03-17T04:53:59;8.50;99.90
86352;DHT22;77009;51.046;3.204;2024-03-17T04:56:24;8.60;99.90
86352;DHT22;77009;51.046;3.204;2024-03-17T04:58:50;8.50;99.90
86352;DHT22;77009;51.046;3.204;2024-03-17T05:01:16;8.50;99.90
86352;DHT22;77009;51.046;3.204;2024-03-17T05:03:41;8.50;99.90
86352;DHT22;77009;51.046;3.204;2024-03-17T05:06:07;8.60;99.90
86352;DHT22;77009;51.046;3.204;2024-03-17T05:08:34;8.70;99.90
86352;DHT22;77009;51.046;3.204;2024-03-17T05:11:04;8.60;99.90
86352;DHT22;77009;51.046;3.204;2024-03-17T05:13:32;8.60;99.90
86352;DHT22;77009;51.046;3.204;2024-03-17T05:15:58;8.60;99.90
86352;DHT22;77009;51.046;3.204;2024-03-17T05:18:24;8.60;99.90
86352;DHT22;77009;51.046;3.204;2024-03-17T05:21:02;8.70;99.90
86352;DHT22;77009;51.046;3.204;2024-03-17T05:23:32;8.70;99.90
86352;DHT22;77009;51.046;3.204;2024-03-17T05:25:58;8.60;99.90
86352;DHT22;77009;51.046;3.204;2024-03-17T05:28:25;8.80;99.90
86352;DHT22;77009;51.046;3.204;2024-03-17T05:30:52;9.00;99.90
86352;DHT22;77009;51.046;3.204;2024-03-17T05:33:18;9.00;99.90
86352;DHT22;77009;51.046;3.204;2024-03-17T05:35:55;8.90;99.90
86352;DHT22;77009;51.046;3.204;2024-03-17T05:38:23;8.80;99.90
86352;DHT22;77009;51.046;3.204;2024-03-17T05:43:21;8.60;99.90
86352;DHT22;77009;51.046;3.204;2024-03-17T05:45:47;8.60;99.90
86352;DHT22;77009;51.046;3.204;2024-03-17T05:48:13;8.80;99.90
86352;DHT22;77009;51.046;3.204;2024-03-17T05:50:39;8.90;99.90
86352;DHT22;77009;51.046;3.204;2024-03-17T05:53:05;8.90;99.90
86352;DHT22;77009;51.046;3.204;2024-03-17T05:55:30;8.90;99.90
86352;DHT22;77009;51.046;3.204;2024-03-17T05:57:56;8.90;99.90
86352;DHT22;77009;51.046;3.204;2024-03-17T06:00:22;8.90;99.90
86352;DHT22;77009;51.046;3.204;2024-03-17T06:02:47;8.90;99.90
86352;DHT22;77009;51.046;3.204;2024-03-17T06:05:14;9.10;99.90
86352;DHT22;77009;51.046;3.204;2024-03-17T06:07:40;9.20;99.90
86352;DHT22;77009;51.046;3.204;2024-03-17T06:10:06;9.10;99.90
86352;DHT22;77009;51.046;3.204;2024-03-17T06:12:32;9.10;99.90
86352;DHT22;77009;51.046;3.204;2024-03-17T06:14:58;9.20;99.90
86352;DHT22;77009;51.046;3.204;2024-03-17T06:17:25;9.30;99.90
86352;DHT22;77009;51.046;3.204;2024-03-17T06:19:52;9.60;99.90
86352;DHT22;77009;51.046;3.204;2024-03-17T06:22:17;9.70;99.90
86352;DHT22;77009;51.046;3.204;2024-03-17T06:24:43;9.60;99.90
86352;DHT22;77009;51.046;3.204;2024-03-17T06:27:09;9.50;99.90
86352;DHT22;77009;51.046;3.204;2024-03-17T06:29:34;9.50;99.90
86352;DHT22;77009;51.046;3.204;2024-03-17T06:32:00;9.30;99.90
86352;DHT22;77009;51.046;3.204;2024-03-17T06:34:26;9.20;99.90
86352;DHT22;77009;51.046;3.204;2024-03-17T06:36:52;9.20;99.90
86352;DHT22;77009;51.046;3.204;2024-03-17T06:39:17;9.20;99.90
86352;DHT22;77009;51.046;3.204;2024-03-17T06:41:45;9.50;99.90
86352;DHT22;77009;51.046;3.204;2024-03-17T06:44:11;9.60;99.90
86352;DHT22;77009;51.046;3.204;2024-03-17T06:46:36;9.60;99.90
86352;DHT22;77009;51.046;3.204;2024-03-17T06:49:02;9.60;99.90
86352;DHT22;77009;51.046;3.204;2024-03-17T06:51:28;9.40;99.90
86352;DHT22;77009;51.046;3.204;2024-03-17T06:53:53;9.50;99.90
86352;DHT22;77009;51.046;3.204;2024-03-17T06:56:19;9.50;99.90
86352;DHT22;77009;51.046;3.204;2024-03-17T06:58:44;9.50;99.90
86352;DHT22;77009;51.046;3.204;2024-03-17T07:01:10;9.80;99.90
86352;DHT22;77009;51.046;3.204;2024-03-17T07:03:36;9.70;99.90
86352;DHT22;77009;51.046;3.204;2024-03-17T07:06:02;9.70;99.90
86352;DHT22;77009;51.046;3.204;2024-03-17T07:08:29;9.90;99.90
86352;DHT22;77009;51.046;3.204;2024-03-17T07:11:05;9.80;99.90
86352;DHT22;77009;51.046;3.204;2024-03-17T07:13:33;10.00;99.90
86352;DHT22;77009;51.046;3.204;2024-03-17T07:16:00;10.10;99.90
86352;DHT22;77009;51.046;3.204;2024-03-17T07:18:27;10.00;99.90
86352;DHT22;77009;51.046;3.204;2024-03-17T07:20:57;10.00;99.90
86352;DHT22;77009;51.046;3.204;2024-03-17T07:23:24;9.90;99.90
86352;DHT22;77009;51.046;3.204;2024-03-17T07:25:57;10.10;99.90
86352;DHT22;77009;51.046;3.204;2024-03-17T07:28:23;10.00;99.90
86352;DHT22;77009;51.046;3.204;2024-03-17T07:30:50;10.10;99.90
86352;DHT22;77009;51.046;3.204;2024-03-17T07:33:16;10.10;99.90
86352;DHT22;77009;51.046;3.204;2024-03-17T07:35:55;10.40;99.90
86352;DHT22;77009;51.046;3.204;2024-03-17T07:38:23;10.40;99.90
86352;DHT22;77009;51.046;3.204;2024-03-17T07:41:05;10.70;99.90
86352;DHT22;77009;51.046;3.204;2024-03-17T07:43:32;10.50;99.90
86352;DHT22;77009;51.046;3.204;2024-03-17T07:48:33;10.70;99.90
86352;DHT22;77009;51.046;3.204;2024-03-17T07:51:01;10.50;99.90
86352;DHT22;77009;51.046;3.204;2024-03-17T07:53:32;10.40;99.90
86352;DHT22;77009;51.046;3.204;2024-03-17T07:56:03;10.50;99.90
86352;DHT22;77009;51.046;3.204;2024-03-17T07:58:30;10.40;99.90
86352;DHT22;77009;51.046;3.204;2024-03-17T08:03:31;10.50;99.90
86352;DHT22;77009;51.046;3.204;2024-03-17T08:05:58;10.50;99.90
86352;DHT22;77009;51.046;3.204;2024-03-17T08:08:24;10.50;99.90
86352;DHT22;77009;51.046;3.204;2024-03-17T08:10:50;10.50;99.90
86352;DHT22;77009;51.046;3.204;2024-03-17T08:13:17;10.40;99.90
86352;DHT22;77009;51.046;3.204;2024-03-17T08:15:43;10.50;99.90
86352;DHT22;77009;51.046;3.204;2024-03-17T08:18:10;10.20;99.90
86352;DHT22;77009;51.046;3.204;2024-03-17T08:20:40;10.20;99.90
86352;DHT22;77009;51.046;3.204;2024-03-17T08:23:08;10.30;99.90
86352;DHT22;77009;51.046;3.204;2024-03-17T08:25:34;10.20;99.90
86352;DHT22;77009;51.046;3.204;2024-03-17T08:28:02;10.30;99.90
86352;DHT22;77009;51.046;3.204;2024-03-17T08:30:28;10.30;99.90
86352;DHT22;77009;51.046;3.204;2024-03-17T08:32:56;10.30;99.90
86352;DHT22;77009;51.046;3.204;2024-03-17T08:35:21;10.30;99.90
86352;DHT22;77009;51.046;3.204;2024-03-17T08:37:47;10.20;99.90
86352;DHT22;77009;51.046;3.204;2024-03-17T08:40:13;10.10;99.90
86352;DHT22;77009;51.046;3.204;2024-03-17T08:42:39;10.10;99.90
86352;DHT22;77009;51.046;3.204;2024-03-17T08:45:06;10.00;99.90
86352;DHT22;77009;51.046;3.204;2024-03-17T08:47:32;9.90;99.90
86352;DHT22;77009;51.046;3.204;2024-03-17T08:49:57;9.90;99.90
86352;DHT22;77009;51.046;3.204;2024-03-17T08:52:24;10.00;99.90
86352;DHT22;77009;51.046;3.204;2024-03-17T08:54:50;10.00;99.90
86352;DHT22;77009;51.046;3.204;2024-03-17T08:57:18;10.00;99.90
86352;DHT22;77009;51.046;3.204;2024-03-17T08:59:47;10.00;99.90
86352;DHT22;77009;51.046;3.204;2024-03-17T09:02:13;10.10;99.90
86352;DHT22;77009;51.046;3.204;2024-03-17T09:04:42;10.10;99.90
86352;DHT22;77009;51.046;3.204;2024-03-17T09:07:08;10.10;99.90
86352;DHT22;77009;51.046;3.204;2024-03-17T09:09:34;10.10;99.90
86352;DHT22;77009;51.046;3.204;2024-03-17T09:11:59;10.30;99.90
86352;DHT22;77009;51.046;3.204;2024-03-17T09:14:25;10.30;99.90
86352;DHT22;77009;51.046;3.204;2024-03-17T09:16:51;10.40;99.90
86352;DHT22;77009;51.046;3.204;2024-03-17T09:19:16;10.50;99.90
86352;DHT22;77009;51.046;3.204;2024-03-17T09:21:42;10.60;99.90
86352;DHT22;77009;51.046;3.204;2024-03-17T09:24:08;10.70;99.90
86352;DHT22;77009;51.046;3.204;2024-03-17T09:26:35;10.80;99.90
86352;DHT22;77009;51.046;3.204;2024-03-17T09:29:03;10.70;99.90
86352;DHT22;77009;51.046;3.204;2024-03-17T09:31:29;10.60;99.90
86352;DHT22;77009;51.046;3.204;2024-03-17T09:33:56;10.70;99.90
86352;DHT22;77009;51.046;3.204;2024-03-17T09:36:21;10.90;99.90
86352;DHT22;77009;51.046;3.204;2024-03-17T09:38:47;10.80;99.90
86352;DHT22;77009;51.046;3.204;2024-03-17T09:41:25;10.80;99.90
86352;DHT22;77009;51.046;3.204;2024-03-17T09:43:58;10.80;99.90
86352;DHT22;77009;51.046;3.204;2024-03-17T09:46:24;11.00;99.90
86352;DHT22;77009;51.046;3.204;2024-03-17T09:48:51;11.00;99.90
86352;DHT22;77009;51.046;3.204;2024-03-17T09:51:26;11.00;99.90
86352;DHT22;77009;51.046;3.204;2024-03-17T09:53:52;11.00;99.90
86352;DHT22;77009;51.046;3.204;2024-03-17T09:56:21;11.00;99.90
86352;DHT22;77009;51.046;3.204;2024-03-17T09:58:48;11.20;99.90
86352;DHT22;77009;51.046;3.204;2024-03-17T10:01:14;11.10;99.90
86352;DHT22;77009;51.046;3.204;2024-03-17T10:03:50;11.20;99.90
86352;DHT22;77009;51.046;3.204;2024-03-17T10:06:25;11.50;99.90
86352;DHT22;77009;51.046;3.204;2024-03-17T10:08:55;11.40;99.90
86352;DHT22;77009;51.046;3.204;2024-03-17T10:11:31;11.40;99.90
86352;DHT22;77009;51.046;3.204;2024-03-17T10:14:10;11.60;99.90
86352;DHT22;77009;51.046;3.204;2024-03-17T10:16:38;11.40;99.90
86352;DHT22;77009;51.046;3.204;2024-03-17T10:19:10;11.50;99.90
86352;DHT22;77009;51.046;3.204;2024-03-17T10:21:38;11.50;99.90
86352;DHT22;77009;51.046;3.204;2024-03-17T10:24:18;11.50;99.90
86352;DHT22;77009;51.046;3.204;2024-03-17T10:26:46;11.70;99.90
86352;DHT22;77009;51.046;3.204;2024-03-17T10:29:28;11.60;99.90
86352;DHT22;77009;51.046;3.204;2024-03-17T10:32:02;11.80;99.90
86352;DHT22;77009;51.046;3.204;2024-03-17T10:34:30;11.90;99.90
86352;DHT22;77009;51.046;3.204;2024-03-17T10:39:37;12.10;99.90
86352;DHT22;77009;51.046;3.204;2024-03-17T10:42:06;12.00;99.90
86352;DHT22;77009;51.046;3.204;2024-03-17T10:44:34;11.90;99.90
86352;DHT22;77009;51.046;3.204;2024-03-17T10:47:02;11.90;99.90
86352;DHT22;77009;51.046;3.204;2024-03-17T10:49:30;11.90;99.90
86352;DHT22;77009;51.046;3.204;2024-03-17T10:52:08;12.00;99.90
86352;DHT22;77009;51.046;3.204;2024-03-17T10:54:40;12.00;99.90
86352;DHT22;77009;51.046;3.204;2024-03-17T10:59:47;12.40;99.90
86352;DHT22;77009;51.046;3.204;2024-03-17T11:02:23;12.50;99.90
86352;DHT22;77009;51.046;3.204;2024-03-17T11:04:51;12.70;99.90
86352;DHT22;77009;51.046;3.204;2024-03-17T11:07:19;12.90;99.90
86352;DHT22;77009;51.046;3.204;2024-03-17T11:09:46;13.40;99.90
86352;DHT22;77009;51.046;3.204;2024-03-17T11:20:38;13.70;99.90
86352;DHT22;77009;51.046;3.204;2024-03-17T11:23:05;13.90;99.90
86352;DHT22;77009;51.046;3.204;2024-03-17T11:28:03;14.30;99.90
86352;DHT22;77009;51.046;3.204;2024-03-17T11:38:56;15.00;99.90
86352;DHT22;77009;51.046;3.204;2024-03-17T11:47:00;15.50;99.90
86352;DHT22;77009;51.046;3.204;2024-03-17T11:49:31;15.90;99.90
86352;DHT22;77009;51.046;3.204;2024-03-17T11:52:00;15.60;99.90
86352;DHT22;77009;51.046;3.204;2024-03-17T11:54:27;16.10;99.90
86352;DHT22;77009;51.046;3.204;2024-03-17T11:57:02;15.80;99.90
86352;DHT22;77009;51.046;3.204;2024-03-17T11:59:28;15.20;99.90
86352;DHT22;77009;51.046;3.204;2024-03-17T12:01:55;15.40;99.90
86352;DHT22;77009;51.046;3.204;2024-03-17T12:04:22;14.90;99.90
86352;DHT22;77009;51.046;3.204;2024-03-17T12:06:49;14.80;99.90
86352;DHT22;77009;51.046;3.204;2024-03-17T12:09:25;14.60;99.90
86352;DHT22;77009;51.046;3.204;2024-03-17T12:12:19;14.60;99.90
86352;DHT22;77009;51.046;3.204;2024-03-17T12:14:45;14.50;99.90
86352;DHT22;77009;51.046;3.204;2024-03-17T12:17:12;14.50;99.90
86352;DHT22;77009;51.046;3.204;2024-03-17T12:19:39;14.50;99.90
86352;DHT22;77009;51.046;3.204;2024-03-17T12:22:06;14.40;99.90
86352;DHT22;77009;51.046;3.204;2024-03-17T12:24:35;14.40;99.90
86352;DHT22;77009;51.046;3.204;2024-03-17T12:27:05;14.60;99.90
86352;DHT22;77009;51.046;3.204;2024-03-17T12:29:37;14.90;99.90
86352;DHT22;77009;51.046;3.204;2024-03-17T12:32:15;14.80;99.90
86352;DHT22;77009;51.046;3.204;2024-03-17T12:34:42;14.70;99.90
86352;DHT22;77009;51.046;3.204;2024-03-17T12:37:17;14.40;99.90
86352;DHT22;77009;51.046;3.204;2024-03-17T12:39:44;14.30;99.90
86352;DHT22;77009;51.046;3.204;2024-03-17T12:42:28;14.30;99.90
86352;DHT22;77009;51.046;3.204;2024-03-17T12:44:54;14.00;99.90
86352;DHT22;77009;51.046;3.204;2024-03-17T12:47:22;13.90;99.90
86352;DHT22;77009;51.046;3.204;2024-03-17T12:49:50;14.10;99.90
86352;DHT22;77009;51.046;3.204;2024-03-17T12:54:55;13.90;99.90
86352;DHT22;77009;51.046;3.204;2024-03-17T12:57:41;13.90;99.90
86352;DHT22;77009;51.046;3.204;2024-03-17T13:00:25;13.60;99.90
86352;DHT22;77009;51.046;3.204;2024-03-17T13:02:57;13.60;99.90
86352;DHT22;77009;51.046;3.204;2024-03-17T13:05:23;13.50;99.90
86352;DHT22;77009;51.046;3.204;2024-03-17T13:07:50;13.60;99.90
86352;DHT22;77009;51.046;3.204;2024-03-17T13:10:17;13.60;99.90
86352;DHT22;77009;51.046;3.204;2024-03-17T13:12:44;13.50;99.90
86352;DHT22;77009;51.046;3.204;2024-03-17T13:15:12;13.50;99.90
86352;DHT22;77009;51.046;3.204;2024-03-17T13:17:38;13.50;99.90
86352;DHT22;77009;51.046;3.204;2024-03-17T13:20:06;13.50;99.90
86352;DHT22;77009;51.046;3.204;2024-03-17T13:22:34;13.50;99.90
86352;DHT22;77009;51.046;3.204;2024-03-17T13:25:01;13.50;99.90
86352;DHT22;77009;51.046;3.204;2024-03-17T13:27:27;13.70;99.90
86352;DHT22;77009;51.046;3.204;2024-03-17T13:29:53;13.90;99.90
86352;DHT22;77009;51.046;3.204;2024-03-17T13:32:19;14.00;99.90
86352;DHT22;77009;51.046;3.204;2024-03-17T13:34:45;14.10;99.90
86352;DHT22;77009;51.046;3.204;2024-03-17T13:37:11;13.90;99.90
86352;DHT22;77009;51.046;3.204;2024-03-17T13:39:37;13.90;99.90
86352;DHT22;77009;51.046;3.204;2024-03-17T13:42:02;14.00;99.90
86352;DHT22;77009;51.046;3.204;2024-03-17T13:44:29;13.90;99.90
86352;DHT22;77009;51.046;3.204;2024-03-17T13:46:56;13.90;99.90
86352;DHT22;77009;51.046;3.204;2024-03-17T13:49:22;13.90;99.90
86352;DHT22;77009;51.046;3.204;2024-03-17T13:51:48;14.00;99.90
86352;DHT22;77009;51.046;3.204;2024-03-17T13:54:14;13.90;99.90
86352;DHT22;77009;51.046;3.204;2024-03-17T13:56:40;13.80;99.90
86352;DHT22;77009;51.046;3.204;2024-03-17T13:59:06;13.80;99.90
86352;DHT22;77009;51.046;3.204;2024-03-17T14:01:31;13.80;99.90
86352;DHT22;77009;51.046;3.204;2024-03-17T14:03:57;13.80;99.90
86352;DHT22;77009;51.046;3.204;2024-03-17T14:06:23;13.80;99.90
86352;DHT22;77009;51.046;3.204;2024-03-17T14:08:48;13.80;99.90
86352;DHT22;77009;51.046;3.204;2024-03-17T14:11:14;13.70;99.90
86352;DHT22;77009;51.046;3.204;2024-03-17T14:13:39;13.60;99.90
86352;DHT22;77009;51.046;3.204;2024-03-17T14:16:05;13.70;99.90
86352;DHT22;77009;51.046;3.204;2024-03-17T14:18:31;13.60;99.90
86352;DHT22;77009;51.046;3.204;2024-03-17T14:21:00;13.60;99.90
86352;DHT22;77009;51.046;3.204;2024-03-17T14:23:26;13.50;99.90
86352;DHT22;77009;51.046;3.204;2024-03-17T14:25:55;13.40;99.90
86352;DHT22;77009;51.046;3.204;2024-03-17T14:28:21;13.50;99.90
86352;DHT22;77009;51.046;3.204;2024-03-17T14:30:47;13.50;99.90
86352;DHT22;77009;51.046;3.204;2024-03-17T14:33:13;13.50;99.90
86352;DHT22;77009;51.046;3.204;2024-03-17T14:35:38;13.50;99.90
86352;DHT22;77009;51.046;3.204;2024-03-17T14:38:06;13.50;99.90
86352;DHT22;77009;51.046;3.204;2024-03-17T14:40:35;13.40;99.90
86352;DHT22;77009;51.046;3.204;2024-03-17T14:43:01;13.50;99.90
86352;DHT22;77009;51.046;3.204;2024-03-17T14:45:28;13.40;99.90
86352;DHT22;77009;51.046;3.204;2024-03-17T14:47:54;13.30;99.90
86352;DHT22;77009;51.046;3.204;2024-03-17T14:50:20;13.20;99.90
86352;DHT22;77009;51.046;3.204;2024-03-17T14:52:46;13.30;99.90
86352;DHT22;77009;51.046;3.204;2024-03-17T14:55:12;13.20;99.90
86352;DHT22;77009;51.046;3.204;2024-03-17T14:57:38;13.30;99.90
86352;DHT22;77009;51.046;3.204;2024-03-17T15:00:12;13.30;99.90
86352;DHT22;77009;51.046;3.204;2024-03-17T15:02:46;13.40;99.90
86352;DHT22;77009;51.046;3.204;2024-03-17T15:05:13;13.30;99.90
86352;DHT22;77009;51.046;3.204;2024-03-17T15:07:40;13.30;99.90
86352;DHT22;77009;51.046;3.204;2024-03-17T15:10:06;13.30;99.90
86352;DHT22;77009;51.046;3.204;2024-03-17T15:12:34;13.20;99.90
86352;DHT22;77009;51.046;3.204;2024-03-17T15:14:59;13.10;99.90
86352;DHT22;77009;51.046;3.204;2024-03-17T15:17:25;13.00;99.90
86352;DHT22;77009;51.046;3.204;2024-03-17T15:19:51;12.80;99.90
86352;DHT22;77009;51.046;3.204;2024-03-17T15:22:16;12.90;99.90
86352;DHT22;77009;51.046;3.204;2024-03-17T15:24:42;12.90;99.90
86352;DHT22;77009;51.046;3.204;2024-03-17T15:27:08;12.80;99.90
86352;DHT22;77009;51.046;3.204;2024-03-17T15:29:35;12.80;99.90
86352;DHT22;77009;51.046;3.204;2024-03-17T15:32:01;12.80;99.90
86352;DHT22;77009;51.046;3.204;2024-03-17T15:34:27;12.80;99.90
86352;DHT22;77009;51.046;3.204;2024-03-17T15:36:56;12.80;99.90
86352;DHT22;77009;51.046;3.204;2024-03-17T15:39:22;12.70;99.90
86352;DHT22;77009;51.046;3.204;2024-03-17T15:41:49;12.80;99.90
86352;DHT22;77009;51.046;3.204;2024-03-17T15:44:14;12.80;99.90
86352;DHT22;77009;51.046;3.204;2024-03-17T15:46:41;12.60;99.90
86352;DHT22;77009;51.046;3.204;2024-03-17T15:49:07;12.70;99.90
86352;DHT22;77009;51.046;3.204;2024-03-17T15:51:32;12.60;99.90
86352;DHT22;77009;51.046;3.204;2024-03-17T15:54:01;12.70;99.90
86352;DHT22;77009;51.046;3.204;2024-03-17T15:56:30;12.60;99.90
86352;DHT22;77009;51.046;3.204;2024-03-17T15:58:55;12.60;99.90
86352;DHT22;77009;51.046;3.204;2024-03-17T16:01:37;12.60;99.90
86352;DHT22;77009;51.046;3.204;2024-03-17T16:04:12;12.50;99.90
86352;DHT22;77009;51.046;3.204;2024-03-17T16:06:38;12.50;99.90
86352;DHT22;77009;51.046;3.204;2024-03-17T16:09:05;12.60;99.90
86352;DHT22;77009;51.046;3.204;2024-03-17T16:11:35;12.50;99.90
86352;DHT22;77009;51.046;3.204;2024-03-17T16:14:03;12.50;99.90
86352;DHT22;77009;51.046;3.204;2024-03-17T16:16:29;12.50;99.90
86352;DHT22;77009;51.046;3.204;2024-03-17T16:18:57;12.60;99.90
86352;DHT22;77009;51.046;3.204;2024-03-17T16:21:23;12.60;99.90
86352;DHT22;77009;51.046;3.204;2024-03-17T16:23:56;12.70;99.90